Time;durP1;ratioP1;P1;durP2;ratioP2;P2;SDS_P1;SDS_P2;PMS_P1;PMS_P2;Temp;Humidity;BMP_temperature;BMP_pressure;BME280_temperature;BME280_humidity;BME280_pressure;Samples;Min_cycle;Max_cycle;Signal;HPM_P1;HPM_P2
2022/05/27 00:01:28;;;;;;;0.90;0.90;;;15.40;61.00;14.70;98903.00;;;;5133945;28;20528;-73
2022/05/27 00:03:58;;;;;;;0.50;0.50;;;15.30;62.00;14.70;98908.00;;;;5133963;28;20277;-73
2022/05/27 00:06:27;;;;;;;0.60;0.60;;;15.30;61.20;14.70;98898.00;;;;5116175;28;20197;-73
2022/05/27 00:08:54;;;;;;;1.90;1.80;;;15.30;61.20;14.70;98864.00;;;;5133925;28;20189;-73
2022/05/27 00:11:22;;;;;;;0.40;0.40;;;15.20;61.10;14.70;98900.00;;;;5133996;28;20272;-73
2022/05/27 00:13:50;;;;;;;0.90;0.90;;;15.30;61.20;14.60;98898.00;;;;5133894;28;20688;-73
2022/05/27 00:16:16;;;;;;;0.70;0.70;;;15.20;60.90;14.70;98902.00;;;;5133823;28;20660;-72
2022/05/27 00:18:43;;;;;;;0.70;0.70;;;15.20;61.10;14.70;98898.00;;;;5133832;28;20268;-73
2022/05/27 00:21:12;;;;;;;0.80;0.80;;;15.30;61.00;14.60;98893.00;;;;5115683;28;20221;-73
2022/05/27 00:23:40;;;;;;;0.50;0.50;;;15.20;61.00;14.70;98894.00;;;;5134003;28;20209;-71
2022/05/27 00:26:07;;;;;;;0.60;0.60;;;15.20;62.20;14.70;98886.00;;;;5133879;28;20712;-72
2022/05/27 00:28:33;;;;;;;0.40;0.40;;;15.20;61.00;14.60;98889.00;;;;5133635;28;20214;-73
2022/05/27 00:31:00;;;;;;;0.40;0.40;;;15.20;60.60;14.60;98887.00;;;;5133684;27;20197;-72
2022/05/27 00:33:27;;;;;;;0.60;0.60;;;15.20;60.70;14.60;98891.00;;;;5136694;28;20663;-72
2022/05/27 00:35:53;;;;;;;0.60;0.60;;;15.20;60.70;14.60;98886.00;;;;5137192;28;20596;-72
2022/05/27 00:38:22;;;;;;;0.50;0.50;;;15.20;60.60;14.60;98884.00;;;;5137151;28;20235;-72
2022/05/27 00:40:53;;;;;;;0.60;0.60;;;15.20;60.60;14.70;98883.00;;;;5136866;28;20528;-72
2022/05/27 00:43:20;;;;;;;0.60;0.60;;;15.20;60.70;14.60;98882.00;;;;5137059;28;20246;-72
2022/05/27 00:46:03;;;;;;;0.40;0.40;;;15.20;61.30;14.60;98873.00;;;;5136918;28;20496;-72
2022/05/27 00:48:33;;;;;;;0.53;0.53;;;15.10;61.90;14.50;98870.00;;;;5137123;28;20208;-73
2022/05/27 00:51:08;;;;;;;0.67;0.67;;;15.10;62.10;14.40;98872.00;;;;5136893;28;20205;-73
2022/05/27 00:53:42;;;;;;;0.70;0.70;;;15.00;62.50;14.30;98858.00;;;;5136956;28;20189;-72
2022/05/27 00:56:13;;;;;;;0.73;0.73;;;15.00;63.00;14.40;98856.00;;;;5136836;28;20662;-72
2022/05/27 00:58:46;;;;;;;0.90;0.90;;;14.90;63.60;14.30;98855.00;;;;5136822;28;20252;-72
2022/05/27 01:01:16;;;;;;;0.40;0.40;;;14.90;63.60;14.20;98855.00;;;;5136783;28;20209;-72
2022/05/27 01:03:46;;;;;;;0.70;0.70;;;14.80;63.00;14.10;98857.00;;;;5136650;28;20674;-73
2022/05/27 01:06:13;;;;;;;0.80;0.80;;;14.80;63.60;14.10;98857.00;;;;5136699;28;20342;-72
2022/05/27 01:08:44;;;;;;;0.40;0.40;;;14.70;63.40;13.90;98859.00;;;;5136639;28;20201;-72
2022/05/27 01:11:32;;;;;;;0.77;0.77;;;14.60;63.50;14.00;98854.00;;;;5136626;28;20221;-72
2022/05/27 01:14:17;;;;;;;0.50;0.50;;;14.70;63.70;13.90;98859.00;;;;5136581;28;20254;-72
2022/05/27 01:16:57;;;;;;;0.50;0.50;;;14.60;64.10;14.00;98848.00;;;;5136401;28;20304;-73
2022/05/27 01:20:20;;;;;;;0.57;0.57;;;14.60;63.60;14.30;98861.00;;;;5136344;28;20201;-72
2022/05/27 01:23:41;;;;;;;0.50;0.50;;;14.70;63.70;14.30;98858.00;;;;5133634;28;20237;-73
2022/05/27 01:26:59;;;;;;;0.87;0.87;;;14.80;63.10;14.30;98855.00;;;;5136300;28;20198;-72
2022/05/27 01:30:02;;;;;;;0.70;0.70;;;14.80;62.80;14.30;98856.00;;;;5118008;28;20684;-72
2022/05/27 01:32:37;;;;;;;0.50;0.50;;;14.90;62.80;14.20;98858.00;;;;5136277;28;20728;-72
2022/05/27 01:35:18;;;;;;;0.80;0.80;;;14.80;62.70;14.20;98859.00;;;;5136098;28;20361;-72
2022/05/27 01:37:56;;;;;;;0.60;0.60;;;14.80;62.80;14.30;98864.00;;;;5136241;28;20197;-72
2022/05/27 01:40:36;;;;;;;0.67;0.67;;;14.80;63.00;14.30;98855.00;;;;5117959;28;20232;-72
2022/05/27 01:43:10;;;;;;;0.70;0.70;;;14.80;63.00;14.20;98848.00;;;;5135958;27;20193;-72
2022/05/27 01:45:46;;;;;;;0.60;0.60;;;14.80;62.80;14.00;98841.00;;;;5137395;28;20196;-72
2022/05/27 01:48:24;;;;;;;0.67;0.67;;;14.70;63.60;14.10;98849.00;;;;5139408;28;20220;-72
2022/05/27 01:51:01;;;;;;;0.53;0.53;;;14.70;63.70;14.00;98853.00;;;;5136099;28;20300;-72
2022/05/27 01:53:37;;;;;;;0.60;0.60;;;14.70;63.70;14.00;98845.00;;;;5135893;28;20220;-72
2022/05/27 01:56:18;;;;;;;0.63;0.63;;;14.60;63.60;13.80;98843.00;;;;5117856;28;20663;-72
2022/05/27 01:58:53;;;;;;;0.50;0.50;;;14.50;64.40;14.00;98848.00;;;;5135993;28;20208;-72
2022/05/27 02:01:26;;;;;;;0.50;0.50;;;14.50;64.60;14.00;98829.00;;;;5135651;28;20227;-72
2022/05/27 02:04:03;;;;;;;0.60;0.60;;;14.60;64.40;14.00;98834.00;;;;5135843;28;20193;-72
2022/05/27 02:06:37;;;;;;;0.57;0.57;;;14.60;64.90;14.10;98841.00;;;;5135670;28;20274;-72
2022/05/27 02:09:09;;;;;;;0.60;0.60;;;14.60;64.80;14.00;98840.00;;;;5135682;28;20213;-72
2022/05/27 02:11:35;;;;;;;2.63;1.13;;;14.60;64.60;14.20;98843.00;;;;5135663;28;20217;-72
2022/05/27 02:14:09;;;;;;;0.60;0.60;;;14.70;64.40;14.10;98840.00;;;;5135587;28;20197;-73
2022/05/27 02:16:42;;;;;;;0.70;0.70;;;14.70;64.30;14.00;98840.00;;;;5135758;28;20206;-72
2022/05/27 02:19:20;;;;;;;0.53;0.53;;;14.70;64.30;14.00;98831.00;;;;5117608;28;20225;-72
2022/05/27 02:21:54;;;;;;;0.73;0.73;;;14.60;64.20;13.90;98837.00;;;;5135376;28;20578;-72
2022/05/27 02:24:27;;;;;;;0.50;0.50;;;14.60;64.60;13.90;98823.00;;;;5135312;28;20231;-72
2022/05/27 02:27:02;;;;;;;0.53;0.53;;;14.50;64.90;13.80;98825.00;;;;5135364;28;20247;-70
2022/05/27 02:29:34;;;;;;;0.50;0.50;;;14.40;65.00;13.90;98827.00;;;;5135366;28;20213;-72
2022/05/27 02:32:08;;;;;;;0.67;0.67;;;14.50;65.70;13.90;98819.00;;;;5135243;28;20217;-72
2022/05/27 02:37:34;;;;;;;0.50;0.50;;;14.50;65.80;13.90;98808.00;;;;5135178;28;20656;-72
2022/05/27 02:40:06;;;;;;;0.60;0.60;;;14.40;65.80;13.90;98815.00;;;;5135163;28;20233;-72
2022/05/27 02:42:41;;;;;;;0.50;0.50;;;14.40;66.40;13.80;98818.00;;;;5116896;28;20602;-72
2022/05/27 02:45:19;;;;;;;0.77;0.77;;;14.40;66.80;13.70;98808.00;;;;5135129;28;20173;-72
2022/05/27 02:47:57;;;;;;;0.70;0.70;;;14.30;66.00;13.60;98808.00;;;;5136334;28;20296;-72
2022/05/27 02:50:41;;;;;;;0.60;0.60;;;14.30;66.30;13.70;98806.00;;;;5135039;28;20245;-72
2022/05/27 02:53:27;;;;;;;7.77;1.03;;;14.30;66.80;13.80;98809.00;;;;5135001;28;20219;-72
2022/05/27 02:56:07;;;;;;;1.27;1.27;;;14.30;67.50;13.80;98800.00;;;;5134256;27;20285;-72
2022/05/27 02:58:34;;;;;;;0.70;0.70;;;14.40;67.10;13.70;98812.00;;;;5135000;28;20176;-71
2022/05/27 03:01:02;;;;;;;0.60;0.60;;;14.30;66.80;13.80;98805.00;;;;5134683;28;20236;-72
2022/05/27 03:03:29;;;;;;;0.67;0.67;;;14.30;67.30;13.70;98809.00;;;;5134843;28;20660;-72
2022/05/27 03:06:18;;;;;;;0.50;0.50;;;14.30;67.10;13.80;98803.00;;;;5134835;28;20205;-72
2022/05/27 03:09:01;;;;;;;0.60;0.60;;;14.40;67.10;13.60;98797.00;;;;5134845;28;20225;-72
2022/05/27 03:11:48;;;;;;;1.23;1.13;;;14.30;66.80;13.90;98787.00;;;;5134755;28;20200;-72
2022/05/27 03:14:40;;;;;;;0.60;0.60;;;14.40;67.90;13.80;98797.00;;;;5134633;28;20307;-72
2022/05/27 03:17:25;;;;;;;0.73;0.73;;;14.40;67.10;13.70;98804.00;;;;5134669;28;20205;-72
2022/05/27 03:20:16;;;;;;;0.50;0.50;;;14.30;67.70;13.80;98795.00;;;;5116630;28;20587;-72
2022/05/27 03:23:02;;;;;;;1.23;1.23;;;14.30;67.50;13.70;98801.00;;;;5134661;28;20221;-72
2022/05/27 03:25:40;;;;;;;0.60;0.60;;;14.30;67.30;14.00;98800.00;;;;5134457;28;20632;-71
2022/05/27 03:28:20;;;;;;;0.70;0.70;;;14.40;67.20;13.90;98806.00;;;;5116475;28;20193;-72
2022/05/27 03:30:55;;;;;;;0.50;0.50;;;;;13.80;98810.00;;;;5134502;28;20595;-72
2022/05/27 03:33:34;;;;;;;0.70;0.70;;;14.40;66.60;13.80;98812.00;;;;5134593;28;20196;-72
2022/05/27 03:36:13;;;;;;;0.50;0.50;;;14.40;67.30;13.80;98805.00;;;;5116393;28;20243;-72
2022/05/27 03:38:50;;;;;;;0.50;0.50;;;14.40;67.00;13.70;98807.00;;;;5134401;28;20216;-72
2022/05/27 03:41:23;;;;;;;0.57;0.57;;;14.40;67.60;13.60;98815.00;;;;5134429;28;20201;-72
2022/05/27 03:43:51;;;;;;;0.70;0.70;;;14.30;67.50;13.80;98807.00;;;;5134293;28;20221;-72
2022/05/27 03:46:29;;;;;;;0.70;0.70;;;14.30;68.20;13.70;98808.00;;;;5134349;28;20632;-72
2022/05/27 03:48:56;;;;;;;2.03;1.87;;;14.40;68.00;13.80;98807.00;;;;5134476;28;20218;-72
2022/05/27 03:51:29;;;;;;;0.50;0.50;;;14.30;68.10;13.70;98818.00;;;;5134195;28;20582;-72
2022/05/27 03:54:05;;;;;;;0.60;0.60;;;14.30;68.20;13.80;98812.00;;;;5134237;28;20209;-72
2022/05/27 03:56:33;;;;;;;0.53;0.53;;;14.40;68.90;13.80;98818.00;;;;5134048;28;20220;-72
2022/05/27 03:59:00;;;;;;;1.20;1.20;;;14.30;68.90;13.90;98821.00;;;;5134098;28;20258;-72
2022/05/27 04:01:29;;;;;;;1.00;1.00;;;14.40;68.70;13.80;98785.00;;;;5133984;28;20225;-72
2022/05/27 04:03:59;;;;;;;0.70;0.70;;;14.40;68.20;13.90;98822.00;;;;5134085;28;20197;-71
2022/05/27 04:06:28;;;;;;;0.70;0.70;;;14.40;68.30;14.00;98819.00;;;;5134113;27;20255;-72
2022/05/27 04:08:55;;;;;;;0.90;0.90;;;14.50;68.50;14.00;98815.00;;;;5137544;28;20285;-72
2022/05/27 04:11:22;;;;;;;1.13;1.13;;;14.50;68.80;13.90;98811.00;;;;5137487;28;20273;-71
2022/05/27 04:13:49;;;;;;;0.50;0.50;;;14.50;68.30;13.90;98814.00;;;;5137475;28;20201;-72
2022/05/27 04:16:15;;;;;;;1.20;1.10;;;14.50;69.20;14.10;98805.00;;;;5137595;28;20205;-72
2022/05/27 04:18:43;;;;;;;0.50;0.50;;;14.60;68.70;14.30;98807.00;;;;5137389;28;20292;-72
2022/05/27 04:21:10;;;;;;;1.50;1.40;;;14.70;67.70;14.20;98814.00;;;;5137272;28;20224;-72
2022/05/27 04:23:39;;;;;;;0.70;0.70;;;14.70;67.70;14.20;98818.00;;;;5137339;28;20201;-72
2022/05/27 04:26:07;;;;;;;1.00;1.00;;;14.70;67.80;14.20;98818.00;;;;5137309;28;20624;-72
2022/05/27 04:28:34;;;;;;;0.60;0.60;;;14.70;66.50;14.20;98815.00;;;;5137553;28;20205;-72
2022/05/27 04:31:04;;;;;;;0.60;0.60;;;14.70;67.20;14.10;98807.00;;;;5137200;28;20193;-72
2022/05/27 04:33:30;;;;;;;0.57;0.57;;;14.70;67.20;14.20;98809.00;;;;5137133;28;20295;-72
2022/05/27 04:35:59;;;;;;;0.83;0.83;;;14.70;66.90;14.10;98816.00;;;;5137231;28;20316;-73
2022/05/27 04:38:26;;;;;;;0.80;0.80;;;14.70;66.60;14.10;98810.00;;;;5137068;28;20213;-72
2022/05/27 04:40:55;;;;;;;0.67;0.67;;;14.70;66.80;14.10;98816.00;;;;5137183;28;20236;-72
2022/05/27 04:43:23;;;;;;;0.70;0.70;;;14.60;67.00;14.10;98819.00;;;;5137099;28;20254;-72
2022/05/27 04:45:49;;;;;;;0.57;0.57;;;14.60;67.50;14.20;98784.00;;;;5137052;28;20221;-72
2022/05/27 04:48:18;;;;;;;0.50;0.50;;;14.70;67.20;14.20;98811.00;;;;5136980;28;20208;-72
2022/05/27 04:50:45;;;;;;;0.60;0.60;;;14.80;67.20;14.20;98822.00;;;;5136796;28;20254;-71
2022/05/27 04:53:13;;;;;;;0.73;0.73;;;14.80;66.90;14.30;98824.00;;;;5136918;28;20659;-73
2022/05/27 04:55:43;;;;;;;0.50;0.50;;;14.90;67.10;14.40;98826.00;;;;5136845;28;20644;-72
2022/05/27 04:58:11;;;;;;;0.60;0.60;;;14.90;66.50;14.50;98833.00;;;;5136956;28;20221;-71
2022/05/27 05:00:42;;;;;;;0.50;0.50;;;15.10;66.70;14.70;98826.00;;;;5136667;28;20213;-72
2022/05/27 05:03:09;;;;;;;0.67;0.67;;;15.10;66.60;14.70;98823.00;;;;5136735;28;20809;-72
2022/05/27 05:05:37;;;;;;;0.67;0.67;;;15.20;65.30;14.70;98833.00;;;;5136668;28;20238;-72
2022/05/27 05:08:07;;;;;;;0.60;0.60;;;15.20;66.00;14.80;98832.00;;;;5136613;28;20221;-72
2022/05/27 05:10:35;;;;;;;0.77;0.77;;;15.30;64.90;14.90;98817.00;;;;5136719;28;20792;-71
2022/05/27 05:13:04;;;;;;;2.10;1.33;;;15.40;65.70;14.80;98840.00;;;;5137801;28;20257;-70
2022/05/27 05:15:31;;;;;;;0.80;0.80;;;15.40;65.60;14.90;98829.00;;;;5144225;28;20221;-71
2022/05/27 05:17:58;;;;;;;0.50;0.50;;;15.40;65.90;14.90;98823.00;;;;5140165;27;20197;-72
2022/05/27 05:20:29;;;;;;;0.40;0.40;;;15.50;66.00;14.90;98836.00;;;;5136540;28;20239;-71
2022/05/27 05:22:56;;;;;;;0.70;0.70;;;15.50;65.50;14.80;98840.00;;;;5136388;28;20520;-72
2022/05/27 05:25:23;;;;;;;0.60;0.60;;;15.40;65.00;14.70;98844.00;;;;5136350;28;20576;-72
2022/05/27 05:27:51;;;;;;;0.50;0.50;;;15.30;65.20;14.80;98845.00;;;;5136161;28;20217;-71
2022/05/27 05:30:22;;;;;;;0.70;0.70;;;15.40;65.90;14.90;98842.00;;;;5136198;28;20193;-72
2022/05/27 05:32:49;;;;;;;1.43;1.43;;;15.40;66.10;14.90;98845.00;;;;5136228;28;20189;-71
2022/05/27 05:35:17;;;;;;;0.60;0.60;;;15.40;65.70;15.10;98851.00;;;;5136183;28;20217;-72
2022/05/27 05:37:44;;;;;;;0.50;0.50;;;15.50;67.30;15.10;98846.00;;;;5118245;28;20300;-72
2022/05/27 05:40:13;;;;;;;0.80;0.80;;;15.60;67.20;15.10;98844.00;;;;5136025;28;20673;-71
2022/05/27 05:42:40;;;;;;;0.70;0.70;;;15.60;67.40;15.10;98837.00;;;;5136034;28;20268;-71
2022/05/27 05:45:12;;;;;;;0.67;0.67;;;15.60;67.20;15.10;98839.00;;;;5136319;28;20600;-72
2022/05/27 05:47:41;;;;;;;0.53;0.53;;;15.60;68.20;15.10;98851.00;;;;5136102;28;20194;-71
2022/05/27 05:50:09;;;;;;;0.87;0.87;;;15.60;67.20;15.20;98842.00;;;;5135943;28;20189;-72
2022/05/27 05:52:38;;;;;;;0.50;0.50;;;15.70;67.20;15.20;98842.00;;;;5135849;28;20664;-72
2022/05/27 05:55:07;;;;;;;0.73;0.73;;;15.70;67.20;15.10;98845.00;;;;5135867;28;20201;-72
2022/05/27 05:57:38;;;;;;;0.60;0.60;;;15.60;67.50;15.10;98847.00;;;;5135911;28;20202;-71
2022/05/27 06:00:07;;;;;;;0.87;0.87;;;15.60;67.90;15.20;98851.00;;;;5135857;28;20197;-73
2022/05/27 06:02:33;;;;;;;0.40;0.40;;;15.70;67.80;15.10;98847.00;;;;5135825;28;20189;-73
2022/05/27 06:05:03;;;;;;;1.03;1.03;;;15.70;67.20;15.10;98846.00;;;;5135579;28;20313;-73
2022/05/27 06:07:30;;;;;;;1.17;1.07;;;15.70;67.80;15.30;98844.00;;;;5135663;28;20204;-73
2022/05/27 06:09:57;;;;;;;0.63;0.63;;;15.80;67.10;15.30;98844.00;;;;5135714;28;20189;-73
2022/05/27 06:12:24;;;;;;;0.40;0.40;;;15.80;67.40;15.30;98843.00;;;;5135853;28;20206;-73
2022/05/27 06:14:54;;;;;;;0.50;0.50;;;15.80;67.30;15.30;98851.00;;;;5117546;28;20229;-73
2022/05/27 06:17:21;;;;;;;0.77;0.77;;;15.80;67.50;15.40;98818.00;;;;5118192;28;20660;-73
2022/05/27 06:19:50;;;;;;;0.47;0.47;;;15.90;67.40;15.40;98850.00;;;;5135629;28;20624;-73
2022/05/27 06:22:18;;;;;;;0.50;0.50;;;15.90;66.70;15.30;98836.00;;;;5135548;28;20336;-73
2022/05/27 06:24:45;;;;;;;1.13;1.00;;;15.90;66.10;15.30;98839.00;;;;5135497;28;20201;-73
2022/05/27 06:27:14;;;;;;;1.00;1.00;;;15.90;66.60;15.20;98845.00;;;;5135928;28;20193;-72
2022/05/27 06:35:10;;;;;;;0.80;0.80;;;15.80;65.20;15.30;98858.00;;;;5135170;28;20628;-73
2022/05/27 06:37:38;;;;;;;0.70;0.70;;;15.90;64.90;15.30;98858.00;;;;5135532;28;20201;-72
2022/05/27 06:40:09;;;;;;;0.83;0.83;;;15.80;65.70;15.40;98853.00;;;;5135140;28;20230;-74
2022/05/27 06:42:39;;;;;;;0.47;0.47;;;15.90;65.50;15.30;98862.00;;;;5135156;28;20213;-73
2022/05/27 06:45:09;;;;;;;0.57;0.57;;;15.90;65.60;15.30;98863.00;;;;5135144;28;20200;-73
2022/05/27 06:47:37;;;;;;;0.53;0.53;;;15.90;64.70;15.40;98869.00;;;;5135006;28;20304;-72
2022/05/27 06:50:07;;;;;;;0.60;0.60;;;15.90;65.40;15.40;98867.00;;;;5134965;28;20217;-72
2022/05/27 06:52:35;;;;;;;0.67;0.67;;;15.90;65.20;15.30;98865.00;;;;5134734;28;20224;-72
2022/05/27 06:55:01;;;;;;;0.60;0.60;;;15.80;65.30;15.30;98876.00;;;;5134799;28;20321;-72
2022/05/27 06:57:28;;;;;;;0.60;0.60;;;15.80;64.70;15.20;98870.00;;;;5134881;28;20267;-72
2022/05/27 06:59:55;;;;;;;1.10;1.10;;;15.70;65.00;15.10;98868.00;;;;5134587;28;20221;-73
2022/05/27 07:02:24;;;;;;;0.70;0.70;;;15.70;64.90;15.20;98866.00;;;;5134752;28;20276;-73
2022/05/27 07:04:51;;;;;;;4.17;1.73;;;15.80;64.00;15.30;98871.00;;;;5134825;28;20486;-73
2022/05/27 07:07:21;;;;;;;0.70;0.70;;;15.80;64.70;15.20;98872.00;;;;5134661;28;20217;-73
2022/05/27 07:09:48;;;;;;;0.70;0.70;;;15.80;64.80;15.30;98860.00;;;;5134709;28;20211;-72
2022/05/27 07:12:16;;;;;;;0.40;0.40;;;15.90;65.10;15.50;98864.00;;;;5134630;28;20668;-72
2022/05/27 07:14:43;;;;;;;0.50;0.50;;;16.00;63.60;15.40;98858.00;;;;5134665;28;20201;-72
2022/05/27 07:17:10;;;;;;;0.60;0.60;;;15.90;64.00;15.30;98869.00;;;;5116378;28;20707;-73
2022/05/27 07:19:37;;;;;;;0.50;0.50;;;15.90;63.30;15.50;98874.00;;;;5134605;28;20200;-73
2022/05/27 07:22:06;;;;;;;0.53;0.53;;;15.90;63.10;15.40;98870.00;;;;5137420;28;20223;-73
2022/05/27 07:24:33;;;;;;;0.80;0.80;;;16.00;63.80;15.40;98864.00;;;;5136614;28;20220;-73
2022/05/27 07:26:59;;;;;;;0.80;0.80;;;15.90;63.60;15.40;98871.00;;;;5134880;28;20535;-73
2022/05/27 07:29:26;;;;;;;1.20;1.20;;;15.90;63.60;15.40;98863.00;;;;5134583;28;20677;-72
2022/05/27 07:31:52;;;;;;;1.00;1.00;;;15.90;64.10;15.50;98858.00;;;;5134580;28;20189;-73
2022/05/27 07:34:20;;;;;;;0.40;0.40;;;16.00;63.90;15.60;98844.00;;;;5134459;28;20212;-73
2022/05/27 07:36:46;;;;;;;0.70;0.70;;;16.00;63.60;15.40;98864.00;;;;5134302;28;20299;-72
2022/05/27 07:39:12;;;;;;;0.50;0.50;;;16.00;63.20;15.50;98869.00;;;;5134474;28;20254;-72
2022/05/27 07:41:41;;;;;;;1.00;1.00;;;16.00;62.80;15.50;98869.00;;;;5136169;27;20220;-71
2022/05/27 07:44:08;;;;;;;0.53;0.53;;;15.90;63.30;15.50;98872.00;;;;5138004;28;20273;-72
2022/05/27 07:46:37;;;;;;;0.70;0.70;;;16.00;63.20;15.50;98865.00;;;;5137804;28;20212;-73
2022/05/27 07:49:05;;;;;;;0.57;0.57;;;16.00;63.40;15.50;98873.00;;;;5137803;28;20225;-72
2022/05/27 07:51:32;;;;;;;2.83;1.13;;;16.00;64.00;15.40;98873.00;;;;5119544;28;20518;-73
2022/05/27 07:53:59;;;;;;;0.70;0.70;;;16.00;64.50;15.50;98869.00;;;;5119605;28;20625;-72
2022/05/27 07:56:28;;;;;;;1.03;0.90;;;16.00;63.40;15.50;98874.00;;;;5137715;28;20190;-72
2022/05/27 07:58:56;;;;;;;0.47;0.47;;;16.00;64.60;15.50;98873.00;;;;5137745;28;20269;-72
2022/05/27 08:01:22;;;;;;;1.30;0.93;;;16.00;64.70;15.70;98864.00;;;;5137623;28;20225;-72
2022/05/27 08:03:49;;;;;;;0.67;0.67;;;16.20;64.50;15.80;98870.00;;;;5137659;28;20531;-73
2022/05/27 08:06:15;;;;;;;0.70;0.70;;;16.20;63.90;15.80;98869.00;;;;5137786;28;20598;-72
2022/05/27 08:08:43;;;;;;;0.60;0.60;;;16.30;63.20;15.70;98879.00;;;;5137552;28;20227;-72
2022/05/27 08:11:09;;;;;;;0.60;0.60;;;16.30;61.90;15.70;98873.00;;;;5137489;28;20353;-72
2022/05/27 08:13:36;;;;;;;0.47;0.47;;;16.20;61.60;15.80;98884.00;;;;5137411;28;20249;-72
2022/05/27 08:16:03;;;;;;;0.50;0.50;;;16.30;61.90;15.80;98883.00;;;;5119337;28;20220;-72
2022/05/27 08:18:30;;;;;;;0.60;0.60;;;16.20;62.00;15.70;98873.00;;;;5137388;28;20287;-72
2022/05/27 08:20:58;;;;;;;0.40;0.40;;;16.20;62.70;15.70;98874.00;;;;5137318;28;20244;-72
2022/05/27 08:23:25;;;;;;;4.33;1.30;;;16.20;62.40;15.80;98876.00;;;;5137283;28;20189;-73
2022/05/27 08:25:55;;;;;;;0.40;0.40;;;16.40;61.10;15.80;98895.00;;;;5137334;28;20249;-73
2022/05/27 08:28:24;;;;;;;0.50;0.50;;;16.40;60.40;16.00;98875.00;;;;5137222;28;20209;-72
2022/05/27 08:30:55;;;;;;;0.60;0.60;;;16.40;60.60;15.90;98878.00;;;;5137072;28;20258;-73
2022/05/27 08:33:23;;;;;;;0.60;0.60;;;16.40;61.30;15.90;98876.00;;;;5137180;28;20656;-73
2022/05/27 08:38:38;;;;;;;0.93;0.93;;;16.50;60.80;16.10;98892.00;;;;5137025;28;20213;-75
2022/05/27 08:41:51;;;;;;;0.40;0.40;;;16.50;61.70;16.20;98880.00;;;;5136924;28;20245;-76
2022/05/27 08:44:38;;;;;;;0.60;0.60;;;16.60;61.70;16.00;98894.00;;;;5128686;28;20260;-74
2022/05/27 08:47:21;;;;;;;0.77;0.77;;;16.50;60.30;15.90;98883.00;;;;5136913;28;20523;-75
2022/05/27 08:49:53;;;;;;;0.70;0.70;;;16.50;61.10;16.20;98889.00;;;;5137018;28;20327;-74
2022/05/27 08:52:27;;;;;;;0.40;0.40;;;16.60;60.60;16.20;98881.00;;;;5136165;27;20298;-73
2022/05/27 08:54:59;;;;;;;1.43;1.20;;;16.70;58.00;16.20;98889.00;;;;5136886;28;20232;-77
2022/05/27 09:00:17;;;;;;;0.77;0.77;;;17.00;57.00;16.50;98891.00;;;;5136557;28;20197;-75
2022/05/27 09:02:56;;;;;;;0.53;0.53;;;17.00;56.20;16.60;98870.00;;;;5136573;28;20671;-74
2022/05/27 09:05:33;;;;;;;0.60;0.60;;;17.00;57.40;16.80;98876.00;;;;5136716;28;20177;-75
2022/05/27 09:08:05;;;;;;;0.90;0.90;;;17.20;55.50;16.80;98878.00;;;;5136622;28;20217;-74
2022/05/27 09:10:46;;;;;;;1.40;0.80;;;17.20;55.90;17.00;98892.00;;;;5136698;28;20716;-75
2022/05/27 09:13:22;;;;;;;0.40;0.40;;;17.40;54.70;17.00;98877.00;;;;5136634;28;20207;-74
2022/05/27 09:15:58;;;;;;;0.70;0.70;;;17.50;53.60;17.10;98868.00;;;;5136558;28;20225;-71
2022/05/27 09:18:36;;;;;;;0.60;0.60;;;17.60;52.50;17.10;98877.00;;;;5136421;28;20601;-71
2022/05/27 09:21:25;;;;;;;0.77;0.77;;;17.60;53.60;17.00;98879.00;;;;5136314;28;20209;-70
2022/05/27 09:24:32;;;;;;;1.37;1.27;;;17.50;52.50;16.70;98865.00;;;;5136387;28;20208;-71
2022/05/27 09:27:07;;;;;;;1.03;1.03;;;17.30;55.20;16.90;98870.00;;;;5136232;28;20221;-72
2022/05/27 09:29:57;;;;;;;0.83;0.83;;;17.30;55.50;17.00;98859.00;;;;5136281;28;20279;-71
2022/05/27 09:32:31;;;;;;;1.10;1.00;;;17.50;55.10;17.00;98873.00;;;;5136247;28;20213;-71
2022/05/27 09:35:06;;;;;;;0.77;0.77;;;17.50;52.90;17.00;98881.00;;;;5136202;28;20520;-71
2022/05/27 09:37:39;;;;;;;0.60;0.60;;;17.50;53.50;16.80;98872.00;;;;5136317;28;20193;-71
2022/05/27 09:40:14;;;;;;;0.77;0.77;;;17.30;54.00;17.00;98872.00;;;;5136278;28;20205;-71
2022/05/27 09:42:54;;;;;;;0.60;0.60;;;17.40;54.50;16.80;98868.00;;;;5136142;28;20279;-71
2022/05/27 09:45:21;;;;;;;0.93;0.93;;;17.30;55.00;17.00;98869.00;;;;5136025;28;20296;-72
2022/05/27 09:47:48;;;;;;;0.60;0.60;;;17.50;55.50;17.20;98867.00;;;;5117901;28;20197;-72
2022/05/27 09:50:26;;;;;;;0.60;0.60;;;17.60;53.60;17.30;98860.00;;;;5135796;28;20284;-71
2022/05/27 09:52:58;;;;;;;0.70;0.70;;;17.70;54.30;17.40;98867.00;;;;5117892;28;20292;-71
2022/05/27 09:55:35;;;;;;;0.63;0.63;;;17.80;54.00;17.50;98865.00;;;;5135968;28;20225;-71
2022/05/27 09:58:06;;;;;;;0.47;0.47;;;17.80;53.80;17.70;98859.00;;;;5117782;28;20208;-72
2022/05/27 10:00:43;;;;;;;0.93;0.93;;;18.00;53.40;17.60;98855.00;;;;5135672;28;20224;-71
2022/05/27 10:03:30;;;;;;;0.60;0.60;;;18.10;53.00;17.80;98856.00;;;;5135737;28;20224;-70
2022/05/27 10:06:01;;;;;;;0.60;0.60;;;18.20;53.00;18.00;98853.00;;;;5135755;28;20240;-71
2022/05/27 10:08:43;;;;;;;1.00;1.00;;;18.30;52.60;17.80;98846.00;;;;5135617;28;20294;-73
2022/05/27 10:11:22;;;;;;;0.47;0.47;;;18.30;52.80;17.80;98840.00;;;;5135644;28;20569;-72
2022/05/27 10:14:10;;;;;;;0.90;0.90;;;18.30;51.70;18.30;98835.00;;;;5135790;28;20277;-70
2022/05/27 10:16:40;;;;;;;0.50;0.50;;;18.50;50.20;18.20;98832.00;;;;5135600;28;20217;-71
2022/05/27 10:19:10;;;;;;;0.60;0.60;;;18.50;49.70;18.40;98831.00;;;;5135546;28;20204;-71
2022/05/27 10:21:54;;;;;;;0.60;0.60;;;18.70;48.80;18.40;98833.00;;;;5135426;28;20304;-71
2022/05/27 10:24:28;;;;;;;0.70;0.70;;;18.80;47.40;18.30;98830.00;;;;5135521;28;20292;-72
2022/05/27 10:27:11;;;;;;;0.70;0.70;;;18.80;47.70;18.30;98829.00;;;;5135456;28;20214;-71
2022/05/27 10:29:53;;;;;;;0.73;0.73;;;18.80;48.40;18.30;98826.00;;;;5135397;28;20219;-70
2022/05/27 10:32:32;;;;;;;0.60;0.60;;;18.80;48.40;18.40;98816.00;;;;5135221;28;20246;-71
2022/05/27 10:34:59;;;;;;;0.50;0.50;;;18.80;48.50;18.40;98802.00;;;;5135315;28;20278;-71
2022/05/27 10:37:39;;;;;;;0.40;0.40;;;;;18.60;98816.00;;;;5135284;28;20193;-71
2022/05/27 10:40:31;;;;;;;0.60;0.60;;;19.00;48.10;18.60;98818.00;;;;5135223;28;20567;-71
2022/05/27 10:43:19;;;;;;;0.40;0.40;;;19.00;49.20;18.70;98820.00;;;;5135378;28;20193;-70
2022/05/27 10:45:50;;;;;;;0.73;0.73;;;;;18.80;98820.00;;;;5135097;28;20220;-72
2022/05/27 10:48:42;;;;;;;0.57;0.57;;;19.20;47.30;18.50;98818.00;;;;5135256;28;20269;-71
2022/05/27 10:51:27;;;;;;;0.50;0.50;;;18.90;47.60;18.70;98828.00;;;;5134934;28;20751;-72
2022/05/27 10:54:15;;;;;;;0.80;0.80;;;19.00;46.80;18.70;98820.00;;;;5135007;28;20208;-71
2022/05/27 11:03:04;;;;;;;1.07;1.07;;;;;19.10;98796.00;;;;5134892;28;20221;-71
2022/05/27 11:05:44;;;;;;;0.60;0.60;;;;;19.10;98802.00;;;;5134979;28;20189;-72
2022/05/27 11:08:25;;;;;;;1.30;0.80;;;19.60;43.40;19.20;98812.00;;;;5134925;28;20193;-71
2022/05/27 11:11:07;;;;;;;0.97;0.97;;;19.60;44.00;19.30;98803.00;;;;5134768;28;20679;-72
2022/05/27 11:17:09;;;;;;;0.53;0.53;;;19.70;43.90;19.90;98770.00;;;;5134396;27;20301;-70
2022/05/27 11:20:14;;;;;;;0.40;0.40;;;20.10;44.30;20.20;98786.00;;;;5134864;28;20652;-70
2022/05/27 11:22:59;;;;;;;0.50;0.50;;;20.40;41.70;20.30;98779.00;;;;5116649;28;20308;-70
2022/05/27 11:25:51;;;;;;;0.50;0.50;;;20.60;41.70;20.50;98784.00;;;;5134879;28;20185;-70
2022/05/27 11:29:02;;;;;;;0.63;0.63;;;;;20.40;98782.00;;;;5134706;28;20229;-70
2022/05/27 11:31:48;;;;;;;0.43;0.43;;;20.80;39.60;20.30;98779.00;;;;5134539;28;20201;-70
2022/05/27 11:34:26;;;;;;;0.40;0.40;;;20.80;40.20;20.20;98770.00;;;;5134384;28;20640;-70
2022/05/27 11:37:25;;;;;;;0.50;0.50;;;;;20.10;98765.00;;;;5134398;28;20303;-70
2022/05/27 11:40:12;;;;;;;0.47;0.47;;;20.60;39.00;20.00;98765.00;;;;5134402;28;20562;-70
2022/05/27 11:43:26;;;;;;;0.53;0.53;;;20.40;40.40;20.30;98749.00;;;;5134269;28;20234;-70
2022/05/27 11:46:10;;;;;;;0.43;0.43;;;;;20.50;98734.00;;;;5134182;28;20221;-70
2022/05/27 11:48:51;;;;;;;0.57;0.57;;;20.80;39.90;21.10;98759.00;;;;5134374;28;20189;-70
2022/05/27 11:51:43;;;;;;;0.40;0.40;;;21.20;39.20;21.10;98751.00;;;;5134198;28;20189;-71